Time;durP1;ratioP1;P1;durP2;ratioP2;P2;SDS_P1;SDS_P2;PMS_P1;PMS_P2;Temp;Humidity;BMP_temperature;BMP_pressure;BME280_temperature;BME280_humidity;BME280_pressure;Samples;Min_cycle;Max_cycle;Signal;HPM_P1;HPM_P2
2022/12/01 00:00:42;;;;;;;37.80;18.50;;;;;;;;;;7385691;19;20005;-74
2022/12/01 00:03:08;;;;;;;36.88;15.55;;;;;;;;;;7384317;19;19995;-74
2022/12/01 00:05:34;;;;;;;39.70;16.85;;;;;;;;;;7387205;19;20002;-75
2022/12/01 00:08:00;;;;;;;32.72;15.95;;;;;;;;;;7386991;19;20002;-74
2022/12/01 00:10:25;;;;;;;35.83;16.52;;;;;;;;;;7386141;19;19999;-75
2022/12/01 00:12:55;;;;;;;37.00;15.52;;;;;;;;;;7386249;19;20022;-75
2022/12/01 00:15:22;;;;;;;37.92;16.00;;;;;;;;;;7384966;19;20206;-74
2022/12/01 00:17:48;;;;;;;32.45;15.75;;;;;;;;;;7387916;19;20002;-75
2022/12/01 00:20:15;;;;;;;37.20;16.27;;;;;;;;;;7385455;19;20453;-75
2022/12/01 00:22:47;;;;;;;33.78;16.08;;;;;;;;;;7384713;19;20035;-74
2022/12/01 00:25:14;;;;;;;30.88;14.30;;;;;;;;;;7386606;19;20002;-74
2022/12/01 00:27:40;;;;;;;32.33;15.73;;;;;;;;;;7386530;19;20456;-75
2022/12/01 00:30:08;;;;;;;33.17;15.65;;;;;;;;;;7385525;19;20002;-72
2022/12/01 00:32:33;;;;;;;32.70;15.68;;;;;;;;;;7384785;19;20014;-71
2022/12/01 00:34:59;;;;;;;36.75;16.65;;;;;;;;;;7393910;19;20003;-73
2022/12/01 00:37:24;;;;;;;39.22;16.60;;;;;;;;;;7393467;19;20341;-70
2022/12/01 00:39:50;;;;;;;33.97;14.85;;;;;;;;;;7397864;19;20373;-70
2022/12/01 00:42:15;;;;;;;39.83;17.58;;;;;;;;;;7394145;19;20002;-70
2022/12/01 00:44:40;;;;;;;37.53;16.42;;;;;;;;;;7395185;19;20002;-70
2022/12/01 00:47:06;;;;;;;33.47;16.02;;;;;;;;;;7394501;19;20003;-70
2022/12/01 00:49:31;;;;;;;38.75;16.20;;;;;;;;;;7392765;19;20350;-70
2022/12/01 00:51:56;;;;;;;40.05;16.30;;;;;;;;;;7391819;19;19999;-71
2022/12/01 00:54:22;;;;;;;44.83;17.23;;;;;;;;;;7392265;19;20002;-72
2022/12/01 00:56:47;;;;;;;41.45;15.52;;;;;;;;;;7393982;19;20017;-71
2022/12/01 00:59:12;;;;;;;38.67;15.20;;;;;;;;;;7394497;19;20002;-72
2022/12/01 01:01:38;;;;;;;35.38;14.00;;;;;;;;;;7391895;19;19998;-72
2022/12/01 01:04:04;;;;;;;37.05;15.13;;;;;;;;;;7393700;19;20749;-71
2022/12/01 01:06:29;;;;;;;28.95;13.05;;;;;;;;;;7397979;19;19991;-72
2022/12/01 01:08:54;;;;;;;37.83;14.07;;;;;;;;;;7393965;19;20087;-72
2022/12/01 01:11:19;;;;;;;39.42;13.38;;;;;;;;;;7392206;19;20016;-71
2022/12/01 01:13:45;;;;;;;36.22;13.60;;;;;;;;;;7391872;19;20442;-72
2022/12/01 01:16:21;;;;;;;32.53;12.57;;;;;;;;;;7394025;19;19998;-72
2022/12/01 01:18:47;;;;;;;28.30;12.23;;;;;;;;;;7392221;19;20456;-72
2022/12/01 01:21:15;;;;;;;32.75;12.65;;;;;;;;;;7396669;19;20005;-72
2022/12/01 01:23:40;;;;;;;31.65;13.68;;;;;;;;;;7391720;19;20340;-71
2022/12/01 01:26:10;;;;;;;28.48;11.45;;;;;;;;;;7393645;19;19998;-72
2022/12/01 01:28:35;;;;;;;32.63;13.02;;;;;;;;;;7393569;19;20364;-72
2022/12/01 01:31:05;;;;;;;29.10;12.65;;;;;;;;;;7396305;19;20013;-72
2022/12/01 01:33:30;;;;;;;28.23;12.30;;;;;;;;;;7392576;19;20009;-72
2022/12/01 01:35:58;;;;;;;35.38;13.13;;;;;;;;;;7393198;19;20003;-72
2022/12/01 01:38:24;;;;;;;32.95;14.07;;;;;;;;;;7389716;19;20011;-72
2022/12/01 01:40:49;;;;;;;34.90;13.85;;;;;;;;;;7391631;19;20017;-72
2022/12/01 01:43:17;;;;;;;33.10;13.85;;;;;;;;;;7392242;19;20050;-71
2022/12/01 01:45:43;;;;;;;34.88;14.90;;;;;;;;;;7390431;19;20785;-72
2022/12/01 01:48:11;;;;;;;35.97;14.85;;;;;;;;;;7391080;19;19995;-72
2022/12/01 01:50:37;;;;;;;29.25;13.52;;;;;;;;;;7392866;19;20117;-71
2022/12/01 01:53:13;;;;;;;35.38;13.77;;;;;;;;;;7389947;19;20027;-71
2022/12/01 01:55:39;;;;;;;35.20;14.20;;;;;;;;;;7392527;19;20006;-71
2022/12/01 01:58:07;;;;;;;36.72;14.57;;;;;;;;;;7390664;19;20102;-72
2022/12/01 02:00:33;;;;;;;42.70;16.30;;;;;;;;;;7389189;19;20006;-71
2022/12/01 02:02:58;;;;;;;35.22;14.23;;;;;;;;;;7391247;19;20034;-72
2022/12/01 02:05:31;;;;;;;33.00;14.40;;;;;;;;;;7389878;19;20002;-71
2022/12/01 02:07:58;;;;;;;33.83;14.75;;;;;;;;;;7391516;19;20002;-72
2022/12/01 02:10:53;;;;;;;35.90;14.52;;;;;;;;;;7391086;19;20003;-71
2022/12/01 02:13:58;;;;;;;37.05;15.55;;;;;;;;;;7388842;19;19998;-71
2022/12/01 02:17:05;;;;;;;31.75;13.77;;;;;;;;;;7391063;19;20003;-71
2022/12/01 02:19:51;;;;;;;36.97;14.20;;;;;;;;;;7387250;19;20022;-72
2022/12/01 02:22:44;;;;;;;38.40;14.65;;;;;;;;;;7386946;19;20017;-71
2022/12/01 02:25:20;;;;;;;35.53;14.80;;;;;;;;;;7390477;19;20019;-71
2022/12/01 02:28:03;;;;;;;38.97;15.70;;;;;;;;;;7391697;19;20003;-71
2022/12/01 02:30:49;;;;;;;37.83;15.52;;;;;;;;;;7389233;19;20003;-71
2022/12/01 02:33:43;;;;;;;37.42;15.65;;;;;;;;;;7391139;19;20042;-71
2022/12/01 02:36:21;;;;;;;38.92;15.55;;;;;;;;;;7391298;19;20003;-71
2022/12/01 02:39:09;;;;;;;38.97;14.93;;;;;;;;;;7391699;19;20006;-71
2022/12/01 02:41:47;;;;;;;35.60;15.90;;;;;;;;;;7395952;19;20039;-71
2022/12/01 02:44:35;;;;;;;36.65;15.88;;;;;;;;;;7406704;19;20002;-72
2022/12/01 02:47:13;;;;;;;40.20;16.58;;;;;;;;;;7400220;19;20214;-71
2022/12/01 02:49:46;;;;;;;37.30;16.48;;;;;;;;;;7388442;19;20099;-71
2022/12/01 02:52:14;;;;;;;37.30;15.45;;;;;;;;;;7390248;19;20003;-71
2022/12/01 02:54:41;;;;;;;37.35;16.20;;;;;;;;;;7389661;19;20003;-71
2022/12/01 02:57:11;;;;;;;38.22;15.52;;;;;;;;;;7391091;19;20389;-71
2022/12/01 02:59:36;;;;;;;39.30;15.07;;;;;;;;;;7389808;19;20005;-72
2022/12/01 03:02:16;;;;;;;35.20;15.73;;;;;;;;;;7387935;19;20062;-72
2022/12/01 03:05:02;;;;;;;39.97;16.40;;;;;;;;;;7389652;19;20377;-71
2022/12/01 03:07:42;;;;;;;34.97;14.80;;;;;;;;;;7390084;19;20665;-72
2022/12/01 03:10:30;;;;;;;42.75;17.65;;;;;;;;;;7389650;19;20122;-70
2022/12/01 03:13:18;;;;;;;37.83;15.27;;;;;;;;;;7389057;19;20070;-72
2022/12/01 03:15:59;;;;;;;37.83;15.43;;;;;;;;;;7389913;19;20009;-71
2022/12/01 03:18:33;;;;;;;38.17;14.90;;;;;;;;;;7388571;19;19999;-71
2022/12/01 03:21:24;;;;;;;41.38;15.50;;;;;;;;;;7389921;19;20416;-71
2022/12/01 03:23:55;;;;;;;38.58;15.55;;;;;;;;;;7390444;19;20002;-71
2022/12/01 03:26:23;;;;;;;42.75;15.23;;;;;;;;;;7391669;19;20095;-71
2022/12/01 03:28:53;;;;;;;39.30;16.23;;;;;;;;;;7389455;19;19998;-72
2022/12/01 03:31:24;;;;;;;36.00;15.17;;;;;;;;;;7388135;19;19995;-72
2022/12/01 03:33:59;;;;;;;40.53;16.60;;;;;;;;;;7388887;19;20103;-71
2022/12/01 03:36:29;;;;;;;38.88;14.50;;;;;;;;;;7389242;19;20074;-71
2022/12/01 03:38:59;;;;;;;38.58;15.77;;;;;;;;;;7387530;19;20003;-71
2022/12/01 03:41:34;;;;;;;34.97;14.68;;;;;;;;;;7387564;19;19999;-72
2022/12/01 03:44:08;;;;;;;38.28;16.05;;;;;;;;;;7386946;19;19998;-71
2022/12/01 03:46:45;;;;;;;39.78;15.82;;;;;;;;;;7389881;19;20158;-71
2022/12/01 03:49:13;;;;;;;36.15;15.82;;;;;;;;;;7389104;19;20024;-71
2022/12/01 03:51:39;;;;;;;33.03;15.27;;;;;;;;;;7387412;19;20002;-71
2022/12/01 03:54:11;;;;;;;46.70;16.77;;;;;;;;;;7387972;19;20403;-72
2022/12/01 03:56:45;;;;;;;40.58;17.42;;;;;;;;;;7388263;19;20003;-72
2022/12/01 03:59:12;;;;;;;33.70;15.73;;;;;;;;;;7386554;19;19998;-71
2022/12/01 04:01:37;;;;;;;38.17;15.05;;;;;;;;;;7385319;19;19998;-71
2022/12/01 04:04:11;;;;;;;36.60;16.02;;;;;;;;;;7386110;19;20009;-72
2022/12/01 04:06:39;;;;;;;37.17;16.08;;;;;;;;;;7388473;19;20518;-72
2022/12/01 04:09:04;;;;;;;37.03;16.27;;;;;;;;;;7401411;19;19999;-71
2022/12/01 04:14:13;;;;;;;36.50;14.77;;;;;;;;;;7401545;19;20005;-71
2022/12/01 04:16:39;;;;;;;33.47;15.00;;;;;;;;;;7401765;19;19991;-71
2022/12/01 04:19:04;;;;;;;35.35;15.48;;;;;;;;;;7400047;19;20761;-70
2022/12/01 04:21:29;;;;;;;37.15;15.45;;;;;;;;;;7400956;19;20016;-71
2022/12/01 04:24:01;;;;;;;35.13;15.68;;;;;;;;;;7401147;19;20003;-70
2022/12/01 04:26:32;;;;;;;33.22;15.90;;;;;;;;;;7401503;19;20003;-71
2022/12/01 04:28:59;;;;;;;36.72;14.57;;;;;;;;;;7401329;19;20002;-71
2022/12/01 04:31:24;;;;;;;32.67;14.50;;;;;;;;;;7400446;19;20324;-71
2022/12/01 04:33:49;;;;;;;34.45;14.68;;;;;;;;;;7400468;19;19995;-71
2022/12/01 04:36:15;;;;;;;33.17;15.68;;;;;;;;;;7401180;19;19998;-70
2022/12/01 04:38:40;;;;;;;35.17;15.88;;;;;;;;;;7399369;19;20011;-70
2022/12/01 04:41:10;;;;;;;36.05;15.88;;;;;;;;;;7398565;19;20007;-71
2022/12/01 04:43:36;;;;;;;32.00;14.55;;;;;;;;;;7399992;19;20464;-70
2022/12/01 04:46:01;;;;;;;31.13;15.88;;;;;;;;;;7398879;19;20070;-70
2022/12/01 04:48:26;;;;;;;34.33;15.40;;;;;;;;;;7400535;19;20099;-71
2022/12/01 04:50:52;;;;;;;36.95;15.77;;;;;;;;;;7399734;19;20058;-71
2022/12/01 04:53:17;;;;;;;37.33;15.68;;;;;;;;;;7397885;19;20005;-70
2022/12/01 04:55:42;;;;;;;34.75;15.48;;;;;;;;;;7400074;19;20078;-70
2022/12/01 04:58:08;;;;;;;31.98;14.93;;;;;;;;;;7399104;19;20002;-71
2022/12/01 05:00:33;;;;;;;31.17;14.32;;;;;;;;;;7399778;19;20005;-71
2022/12/01 05:02:59;;;;;;;29.48;13.82;;;;;;;;;;7399851;19;19998;-71
2022/12/01 05:05:25;;;;;;;32.20;15.30;;;;;;;;;;7403004;19;20006;-70
2022/12/01 05:07:50;;;;;;;33.92;14.80;;;;;;;;;;7400414;19;20553;-71
2022/12/01 05:10:17;;;;;;;30.77;13.48;;;;;;;;;;7399491;19;20110;-70
2022/12/01 05:12:45;;;;;;;28.73;13.98;;;;;;;;;;7400946;19;20010;-72
2022/12/01 05:15:10;;;;;;;31.90;14.27;;;;;;;;;;7399819;19;20006;-70
2022/12/01 05:17:36;;;;;;;29.65;13.35;;;;;;;;;;7402393;19;20066;-71
2022/12/01 05:22:45;;;;;;;27.95;13.02;;;;;;;;;;7392217;19;20014;-71
2022/12/01 05:25:10;;;;;;;24.65;11.07;;;;;;;;;;7392524;19;20003;-71
2022/12/01 05:27:35;;;;;;;24.40;11.43;;;;;;;;;;7392892;19;20539;-70
2022/12/01 05:30:01;;;;;;;22.15;10.45;;;;;;;;;;7389925;19;20534;-70
2022/12/01 05:32:26;;;;;;;24.90;9.70;;;;;;;;;;7393767;19;20006;-69
2022/12/01 05:34:51;;;;;;;27.17;12.15;;;;;;;;;;7393265;19;20027;-70
2022/12/01 05:37:17;;;;;;;26.52;11.60;;;;;;;;;;7390444;19;20010;-72
2022/12/01 05:39:42;;;;;;;26.13;12.68;;;;;;;;;;7396043;19;20009;-71
2022/12/01 05:42:07;;;;;;;31.05;13.45;;;;;;;;;;7392384;19;20476;-70
2022/12/01 05:44:32;;;;;;;24.52;10.70;;;;;;;;;;7394716;19;20001;-72
2022/12/01 05:46:58;;;;;;;27.88;11.52;;;;;;;;;;7392596;19;20014;-72
2022/12/01 05:49:23;;;;;;;25.20;11.73;;;;;;;;;;7392649;19;20345;-72
2022/12/01 05:51:48;;;;;;;31.48;11.68;;;;;;;;;;7388831;19;20031;-72
2022/12/01 05:54:15;;;;;;;25.10;12.18;;;;;;;;;;7387838;19;20002;-72
2022/12/01 05:56:40;;;;;;;25.02;10.95;;;;;;;;;;7390176;19;20026;-72
2022/12/01 05:59:05;;;;;;;23.67;10.90;;;;;;;;;;7388289;19;19995;-72
2022/12/01 06:01:31;;;;;;;26.48;11.65;;;;;;;;;;7387570;19;19998;-72
2022/12/01 06:03:56;;;;;;;27.95;12.27;;;;;;;;;;7387534;19;19986;-72
2022/12/01 06:06:21;;;;;;;25.77;11.10;;;;;;;;;;7389070;19;20010;-72
2022/12/01 06:08:46;;;;;;;29.33;11.93;;;;;;;;;;7391687;19;19994;-71
2022/12/01 06:11:12;;;;;;;27.17;10.63;;;;;;;;;;7390887;19;20402;-73
2022/12/01 06:13:37;;;;;;;25.17;10.65;;;;;;;;;;7391605;19;19990;-70
2022/12/01 06:16:04;;;;;;;30.33;10.82;;;;;;;;;;7392672;19;19998;-72
2022/12/01 06:18:35;;;;;;;27.45;12.63;;;;;;;;;;7390840;19;20002;-71
2022/12/01 06:21:01;;;;;;;26.90;11.88;;;;;;;;;;7388985;19;20452;-74
2022/12/01 06:23:27;;;;;;;28.52;12.63;;;;;;;;;;7391200;19;20002;-73
2022/12/01 06:25:52;;;;;;;24.05;12.20;;;;;;;;;;7389476;19;20006;-74
2022/12/01 06:28:17;;;;;;;30.65;13.02;;;;;;;;;;7388931;19;20363;-74
2022/12/01 06:30:43;;;;;;;26.70;12.77;;;;;;;;;;7389587;19;19999;-74
2022/12/01 06:33:08;;;;;;;32.40;13.13;;;;;;;;;;7358979;19;20137;-74
2022/12/01 06:35:34;;;;;;;24.67;12.30;;;;;;;;;;7387595;19;19995;-74
2022/12/01 06:37:59;;;;;;;26.98;11.57;;;;;;;;;;7392037;19;20070;-72
2022/12/01 06:40:25;;;;;;;25.88;10.57;;;;;;;;;;7390339;19;20628;-72
2022/12/01 06:42:51;;;;;;;30.33;11.98;;;;;;;;;;7391975;19;20488;-75
2022/12/01 06:45:16;;;;;;;30.65;13.27;;;;;;;;;;7393366;19;20009;-73
2022/12/01 06:47:42;;;;;;;30.70;13.30;;;;;;;;;;7393702;19;20042;-73
2022/12/01 06:50:09;;;;;;;27.25;13.90;;;;;;;;;;7391802;19;20032;-73
2022/12/01 06:52:35;;;;;;;28.33;12.30;;;;;;;;;;7391531;19;20381;-73
2022/12/01 06:55:02;;;;;;;29.65;13.43;;;;;;;;;;7392765;19;20062;-73
2022/12/01 06:57:28;;;;;;;29.77;12.40;;;;;;;;;;7392542;19;20471;-73
2022/12/01 06:59:53;;;;;;;27.95;9.85;;;;;;;;;;7391499;19;20003;-74
2022/12/01 07:02:18;;;;;;;19.10;9.73;;;;;;;;;;7393433;19;19995;-74
2022/12/01 07:04:44;;;;;;;29.42;10.88;;;;;;;;;;7390708;19;20087;-74
2022/12/01 07:07:10;;;;;;;21.73;8.45;;;;;;;;;;7389828;19;20002;-74
2022/12/01 07:09:36;;;;;;;21.52;9.30;;;;;;;;;;7391259;19;19999;-74
2022/12/01 07:12:01;;;;;;;24.38;9.70;;;;;;;;;;7390545;19;20009;-74
2022/12/01 07:14:27;;;;;;;22.98;9.43;;;;;;;;;;7391849;19;20009;-74
2022/12/01 07:16:52;;;;;;;24.60;9.85;;;;;;;;;;7388973;19;20468;-74
2022/12/01 07:19:18;;;;;;;16.80;8.23;;;;;;;;;;7389585;19;20014;-75
2022/12/01 07:21:43;;;;;;;23.80;10.15;;;;;;;;;;7388700;19;20034;-74
2022/12/01 07:24:09;;;;;;;21.92;9.35;;;;;;;;;;7389502;19;20005;-74
2022/12/01 07:26:34;;;;;;;26.77;10.27;;;;;;;;;;7392609;19;19999;-74
2022/12/01 07:28:59;;;;;;;29.05;10.48;;;;;;;;;;7389513;19;20027;-73
2022/12/01 07:31:25;;;;;;;23.48;10.50;;;;;;;;;;7390688;19;20003;-75
2022/12/01 07:33:51;;;;;;;23.25;11.13;;;;;;;;;;7390194;19;20073;-75
2022/12/01 07:36:16;;;;;;;25.30;11.55;;;;;;;;;;7388838;19;20003;-74
2022/12/01 07:38:42;;;;;;;24.40;11.02;;;;;;;;;;7385040;19;20009;-73
2022/12/01 07:41:12;;;;;;;25.50;9.75;;;;;;;;;;7388948;19;19995;-75
2022/12/01 07:43:38;;;;;;;21.90;10.10;;;;;;;;;;7388577;19;20349;-74
2022/12/01 07:46:06;;;;;;;20.58;8.65;;;;;;;;;;7391420;19;20014;-73
2022/12/01 07:48:31;;;;;;;22.33;10.73;;;;;;;;;;7392167;19;20011;-74
2022/12/01 07:50:56;;;;;;;27.58;9.90;;;;;;;;;;7390072;19;20011;-74
2022/12/01 07:53:23;;;;;;;23.08;10.57;;;;;;;;;;7390600;19;20009;-74
2022/12/01 07:55:49;;;;;;;20.50;9.20;;;;;;;;;;7391380;19;20002;-72
2022/12/01 07:58:14;;;;;;;21.00;9.27;;;;;;;;;;7392835;19;20013;-74
2022/12/01 08:00:40;;;;;;;25.65;10.30;;;;;;;;;;7389874;19;20002;-73
2022/12/01 08:03:05;;;;;;;29.00;11.05;;;;;;;;;;7391220;19;20009;-74
2022/12/01 08:05:30;;;;;;;21.45;9.50;;;;;;;;;;7389473;19;19998;-75
2022/12/01 08:07:55;;;;;;;24.63;10.00;;;;;;;;;;7391053;19;20067;-75
2022/12/01 08:10:21;;;;;;;24.27;10.35;;;;;;;;;;7389270;19;20006;-74
2022/12/01 08:12:46;;;;;;;26.65;10.13;;;;;;;;;;7388635;19;20400;-74
2022/12/01 08:15:12;;;;;;;19.63;9.55;;;;;;;;;;7389216;19;19998;-74
2022/12/01 08:17:37;;;;;;;20.77;9.25;;;;;;;;;;7389134;19;20036;-74
2022/12/01 08:20:03;;;;;;;24.15;10.00;;;;;;;;;;7390555;19;20015;-73
2022/12/01 08:22:28;;;;;;;25.35;9.70;;;;;;;;;;7388100;19;20062;-73
2022/12/01 08:24:53;;;;;;;22.55;10.00;;;;;;;;;;7386973;19;20438;-74
2022/12/01 08:27:19;;;;;;;20.40;8.73;;;;;;;;;;7388715;19;20005;-74
2022/12/01 08:29:44;;;;;;;18.42;8.40;;;;;;;;;;7387915;19;19998;-74
2022/12/01 08:32:09;;;;;;;19.13;7.82;;;;;;;;;;7387246;19;20006;-73
2022/12/01 08:34:37;;;;;;;22.80;9.10;;;;;;;;;;7389789;19;20023;-73
2022/12/01 08:37:02;;;;;;;17.88;8.45;;;;;;;;;;7388596;19;20460;-74
2022/12/01 08:39:27;;;;;;;20.42;8.80;;;;;;;;;;7389405;19;20006;-73
2022/12/01 08:41:53;;;;;;;16.98;8.00;;;;;;;;;;7387164;19;20002;-72
2022/12/01 08:44:18;;;;;;;22.65;9.13;;;;;;;;;;7389615;19;20001;-75
2022/12/01 08:46:43;;;;;;;19.88;8.65;;;;;;;;;;7390930;19;19998;-75
2022/12/01 08:49:09;;;;;;;19.27;9.05;;;;;;;;;;7388268;19;20006;-75
2022/12/01 08:51:35;;;;;;;19.10;8.95;;;;;;;;;;7387485;19;20062;-74
2022/12/01 08:54:01;;;;;;;17.50;8.38;;;;;;;;;;7390064;19;20418;-74
2022/12/01 08:56:33;;;;;;;18.08;8.27;;;;;;;;;;7392593;19;20003;-75
2022/12/01 08:58:58;;;;;;;18.02;8.48;;;;;;;;;;7394699;19;20001;-74
2022/12/01 09:01:24;;;;;;;18.50;8.20;;;;;;;;;;7395294;19;19995;-73
2022/12/01 09:04:04;;;;;;;21.20;8.82;;;;;;;;;;7392390;19;20416;-74
2022/12/01 09:06:40;;;;;;;19.48;8.68;;;;;;;;;;7394325;19;20005;-75
2022/12/01 09:09:07;;;;;;;18.05;8.32;;;;;;;;;;7396282;19;20608;-74
2022/12/01 09:11:32;;;;;;;17.67;8.52;;;;;;;;;;7394177;19;19998;-75
2022/12/01 09:13:58;;;;;;;20.15;9.13;;;;;;;;;;7393448;19;20550;-74
2022/12/01 09:16:24;;;;;;;22.65;8.75;;;;;;;;;;7394801;19;20571;-74
2022/12/01 09:18:49;;;;;;;22.33;9.95;;;;;;;;;;7392125;19;20023;-74
2022/12/01 09:21:22;;;;;;;19.70;8.88;;;;;;;;;;7392089;19;20006;-74
2022/12/01 09:23:48;;;;;;;17.30;8.20;;;;;;;;;;7395342;19;20014;-75
2022/12/01 09:26:17;;;;;;;21.45;9.10;;;;;;;;;;7391307;19;20082;-74
2022/12/01 09:28:46;;;;;;;21.08;8.93;;;;;;;;;;7396194;19;20459;-73
2022/12/01 09:31:13;;;;;;;20.17;9.27;;;;;;;;;;7394465;19;19998;-73
2022/12/01 09:33:39;;;;;;;20.33;9.07;;;;;;;;;;7393888;19;20002;-74
2022/12/01 09:36:06;;;;;;;18.75;8.90;;;;;;;;;;7396418;19;20328;-74
2022/12/01 09:38:33;;;;;;;23.02;9.00;;;;;;;;;;7392288;19;19995;-74
2022/12/01 09:41:10;;;;;;;18.52;8.88;;;;;;;;;;7393079;19;20019;-74
2022/12/01 09:43:44;;;;;;;20.95;8.82;;;;;;;;;;7393707;19;20006;-74
2022/12/01 09:46:17;;;;;;;19.25;9.23;;;;;;;;;;7395153;19;20371;-74
2022/12/01 09:48:45;;;;;;;20.88;9.05;;;;;;;;;;7393981;19;20015;-74
2022/12/01 09:51:36;;;;;;;23.92;10.40;;;;;;;;;;7393930;19;20002;-74
2022/12/01 09:54:02;;;;;;;18.95;8.73;;;;;;;;;;7395583;19;20005;-74
2022/12/01 09:56:32;;;;;;;16.70;7.93;;;;;;;;;;7393407;19;19991;-74
2022/12/01 09:59:00;;;;;;;21.35;8.27;;;;;;;;;;7392909;19;19994;-74
2022/12/01 10:01:33;;;;;;;24.60;8.65;;;;;;;;;;7393706;19;20005;-74
2022/12/01 10:04:08;;;;;;;21.20;8.95;;;;;;;;;;7395970;19;20002;-74
2022/12/01 10:07:05;;;;;;;18.27;8.07;;;;;;;;;;7391729;19;20321;-74
2022/12/01 10:09:39;;;;;;;20.80;8.25;;;;;;;;;;7393746;19;19998;-74
2022/12/01 10:12:17;;;;;;;19.08;8.10;;;;;;;;;;7392078;19;20073;-74
2022/12/01 10:14:47;;;;;;;17.00;7.57;;;;;;;;;;7390748;19;20362;-74
2022/12/01 10:17:27;;;;;;;19.70;8.48;;;;;;;;;;7393941;19;19994;-73
2022/12/01 10:19:56;;;;;;;19.97;7.93;;;;;;;;;;7394092;19;19999;-74
2022/12/01 10:22:38;;;;;;;17.15;7.53;;;;;;;;;;7392702;19;19995;-73
2022/12/01 10:25:23;;;;;;;19.77;8.57;;;;;;;;;;7391996;19;19995;-75
2022/12/01 10:28:02;;;;;;;18.73;8.38;;;;;;;;;;7393407;19;20026;-75
2022/12/01 10:30:28;;;;;;;16.98;7.85;;;;;;;;;;7391082;19;20467;-73
2022/12/01 10:32:57;;;;;;;16.23;8.45;;;;;;;;;;7390179;19;20006;-74
2022/12/01 10:35:26;;;;;;;22.52;7.72;;;;;;;;;;7393098;19;20005;-75
2022/12/01 10:37:58;;;;;;;22.00;8.30;;;;;;;;;;7392968;19;20003;-75
2022/12/01 10:40:26;;;;;;;18.33;8.70;;;;;;;;;;7387650;19;20325;-73
2022/12/01 10:42:52;;;;;;;14.45;7.18;;;;;;;;;;7394059;19;20062;-73
2022/12/01 10:45:24;;;;;;;19.30;8.13;;;;;;;;;;7392786;19;20001;-75
2022/12/01 10:48:11;;;;;;;22.38;8.10;;;;;;;;;;7392582;19;19994;-73
2022/12/01 10:50:37;;;;;;;20.58;8.32;;;;;;;;;;7388635;19;20006;-73
2022/12/01 10:53:03;;;;;;;19.33;7.85;;;;;;;;;;7391475;19;20010;-75
2022/12/01 10:55:39;;;;;;;16.23;7.63;;;;;;;;;;7392582;19;20388;-75
2022/12/01 10:58:15;;;;;;;17.30;7.00;;;;;;;;;;7392854;19;19998;-74
2022/12/01 11:00:45;;;;;;;15.15;8.00;;;;;;;;;;7389896;19;20002;-75
2022/12/01 11:03:25;;;;;;;25.50;7.82;;;;;;;;;;7389128;19;20002;-73
2022/12/01 11:05:54;;;;;;;20.23;8.20;;;;;;;;;;7391509;19;19999;-73
2022/12/01 11:08:37;;;;;;;19.02;7.75;;;;;;;;;;7389805;19;20002;-74
2022/12/01 11:11:03;;;;;;;17.95;7.60;;;;;;;;;;7388427;19;20003;-75
2022/12/01 11:13:33;;;;;;;20.70;8.75;;;;;;;;;;7392100;19;20029;-75
2022/12/01 11:16:01;;;;;;;16.30;8.13;;;;;;;;;;7388240;19;20565;-75
2022/12/01 11:18:32;;;;;;;16.58;8.50;;;;;;;;;;7384267;19;19999;-75
2022/12/01 11:21:13;;;;;;;21.42;8.55;;;;;;;;;;7385260;19;20007;-74
2022/12/01 11:23:49;;;;;;;19.20;8.23;;;;;;;;;;7386797;19;20030;-74
2022/12/01 11:26:27;;;;;;;19.58;8.02;;;;;;;;;;7386741;19;20026;-74
2022/12/01 11:29:21;;;;;;;21.65;9.48;;;;;;;;;;7386306;19;20413;-74
2022/12/01 11:31:49;;;;;;;17.17;8.00;;;;;;;;;;7391138;19;20006;-74
2022/12/01 11:34:27;;;;;;;29.27;9.35;;;;;;;;;;7392206;19;20026;-75
2022/12/01 11:36:56;;;;;;;24.92;10.15;;;;;;;;;;7389906;19;20002;-74
2022/12/01 11:39:35;;;;;;;26.92;10.02;;;;;;;;;;7390191;19;19998;-74
2022/12/01 11:42:03;;;;;;;23.45;10.38;;;;;;;;;;7392971;19;20039;-74
2022/12/01 11:44:30;;;;;;;23.30;9.77;;;;;;;;;;7389709;19;20518;-74
2022/12/01 11:46:57;;;;;;;21.23;9.23;;;;;;;;;;7387201;19;20007;-75
2022/12/01 11:49:27;;;;;;;25.08;10.40;;;;;;;;;;7390319;19;19999;-74
2022/12/01 11:51:53;;;;;;;18.27;8.23;;;;;;;;;;7390797;19;20003;-74
2022/12/01 11:54:24;;;;;;;25.17;11.40;;;;;;;;;;7390067;19;20275;-73
2022/12/01 11:56:51;;;;;;;19.50;9.13;;;;;;;;;;7389033;19;19999;-74
2022/12/01 11:59:27;;;;;;;24.33;9.70;;;;;;;;;;7388573;19;20008;-73
2022/12/01 12:02:26;;;;;;;20.98;9.35;;;;;;;;;;7389050;19;20003;-72
2022/12/01 12:05:06;;;;;;;26.70;9.23;;;;;;;;;;7390098;19;20046;-73
2022/12/01 12:07:43;;;;;;;20.95;9.48;;;;;;;;;;7389968;19;20654;-73
2022/12/01 12:10:27;;;;;;;26.95;10.30;;;;;;;;;;7391755;19;20005;-73
2022/12/01 12:13:08;;;;;;;22.38;9.23;;;;;;;;;;7388861;19;19998;-72
2022/12/01 12:15:36;;;;;;;20.98;9.25;;;;;;;;;;7390824;19;19999;-73
2022/12/01 12:18:47;;;;;;;20.98;9.48;;;;;;;;;;7388624;19;20365;-73
2022/12/01 12:21:44;;;;;;;20.33;9.00;;;;;;;;;;7384611;19;19998;-73
2022/12/01 12:24:24;;;;;;;19.45;8.50;;;;;;;;;;7391287;19;20468;-73
2022/12/01 12:26:59;;;;;;;25.25;9.05;;;;;;;;;;7389242;19;20002;-73
2022/12/01 12:29:49;;;;;;;18.30;8.68;;;;;;;;;;7395243;19;20006;-74
2022/12/01 12:32:23;;;;;;;25.83;9.43;;;;;;;;;;7392941;19;20018;-76
2022/12/01 12:35:18;;;;;;;19.83;9.60;;;;;;;;;;7396148;19;20397;-76
2022/12/01 12:38:22;;;;;;;25.20;10.40;;;;;;;;;;7396464;19;20507;-76
2022/12/01 12:41:13;;;;;;;23.85;9.55;;;;;;;;;;7395105;19;20078;-76
2022/12/01 12:44:26;;;;;;;23.70;10.07;;;;;;;;;;7396087;19;20352;-76
2022/12/01 12:46:51;;;;;;;20.27;9.18;;;;;;;;;;7395467;19;20095;-77
2022/12/01 12:49:26;;;;;;;19.90;9.57;;;;;;;;;;7395279;19;20018;-76
2022/12/01 12:51:58;;;;;;;20.92;9.45;;;;;;;;;;7395647;19;20067;-76
2022/12/01 12:54:47;;;;;;;20.77;9.02;;;;;;;;;;7392808;19;20025;-76
2022/12/01 12:57:26;;;;;;;22.40;10.05;;;;;;;;;;7391879;19;20462;-75
2022/12/01 13:00:03;;;;;;;23.98;10.68;;;;;;;;;;7397074;19;20018;-75
2022/12/01 13:02:51;;;;;;;23.42;10.43;;;;;;;;;;7393696;19;20002;-76
2022/12/01 13:05:35;;;;;;;23.13;10.18;;;;;;;;;;7396420;19;19991;-76
2022/12/01 13:08:17;;;;;;;25.67;10.80;;;;;;;;;;7393826;19;20074;-76
2022/12/01 13:10:56;;;;;;;21.20;9.73;;;;;;;;;;7394289;19;20039;-75
2022/12/01 13:13:37;;;;;;;25.95;11.35;;;;;;;;;;7402255;19;20003;-76
2022/12/01 13:16:05;;;;;;;24.50;9.77;;;;;;;;;;7400299;19;20455;-75
2022/12/01 13:18:42;;;;;;;25.60;10.85;;;;;;;;;;7394134;19;20801;-76
2022/12/01 13:21:14;;;;;;;23.33;10.10;;;;;;;;;;7394704;19;20062;-76
2022/12/01 13:23:40;;;;;;;26.75;10.70;;;;;;;;;;7395894;19;19997;-76
2022/12/01 13:26:08;;;;;;;22.40;9.30;;;;;;;;;;7397000;19;20534;-76
2022/12/01 13:28:39;;;;;;;24.02;10.93;;;;;;;;;;7393692;19;20066;-75
2022/12/01 13:31:11;;;;;;;24.35;10.15;;;;;;;;;;7393251;19;20009;-76
2022/12/01 13:33:42;;;;;;;25.40;10.18;;;;;;;;;;7395453;19;19999;-76
2022/12/01 13:36:10;;;;;;;28.02;11.25;;;;;;;;;;7396912;19;20077;-75
2022/12/01 13:38:36;;;;;;;24.27;9.85;;;;;;;;;;7392412;19;20014;-75
2022/12/01 13:41:10;;;;;;;21.45;9.50;;;;;;;;;;7391119;19;19999;-75
2022/12/01 13:43:44;;;;;;;23.75;10.50;;;;;;;;;;7395068;19;19994;-76
2022/12/01 13:46:24;;;;;;;21.83;9.63;;;;;;;;;;7396259;19;20008;-74
2022/12/01 13:48:52;;;;;;;28.95;11.23;;;;;;;;;;7394301;19;19997;-76
2022/12/01 13:51:21;;;;;;;22.30;9.98;;;;;;;;;;7394355;19;19991;-76
2022/12/01 13:54:03;;;;;;;24.55;10.32;;;;;;;;;;7392939;19;20106;-77
2022/12/01 13:56:42;;;;;;;21.80;9.85;;;;;;;;;;7393381;19;20019;-76
2022/12/01 13:59:45;;;;;;;21.38;9.43;;;;;;;;;;7392342;19;20206;-76
2022/12/01 14:02:19;;;;;;;20.00;10.80;;;;;;;;;;7394214;19;20002;-77
2022/12/01 14:04:45;;;;;;;24.55;8.73;;;;;;;;;;7392889;19;20007;-76
2022/12/01 14:07:30;;;;;;;19.52;9.02;;;;;;;;;;7393723;19;20009;-76
2022/12/01 14:10:07;;;;;;;24.65;9.30;;;;;;;;;;7395154;19;20677;-76
2022/12/01 14:12:36;;;;;;;23.20;10.32;;;;;;;;;;7390358;19;20404;-75
2022/12/01 14:15:20;;;;;;;22.50;11.00;;;;;;;;;;7393640;19;20018;-75
2022/12/01 14:17:46;;;;;;;25.40;11.38;;;;;;;;;;7394556;19;20005;-75
2022/12/01 14:20:11;;;;;;;22.45;9.88;;;;;;;;;;7395148;19;19998;-75
2022/12/01 14:22:38;;;;;;;23.70;11.90;;;;;;;;;;7390137;19;20078;-76
2022/12/01 14:25:21;;;;;;;28.80;10.85;;;;;;;;;;7392581;19;20031;-75
2022/12/01 14:27:55;;;;;;;28.92;11.00;;;;;;;;;;7395194;19;20342;-76
2022/12/01 14:30:39;;;;;;;20.85;10.00;;;;;;;;;;7395679;19;20357;-75
2022/12/01 14:33:41;;;;;;;23.48;10.43;;;;;;;;;;7392801;19;20002;-76
2022/12/01 14:36:21;;;;;;;21.33;10.35;;;;;;;;;;7385383;19;20070;-75
2022/12/01 14:39:11;;;;;;;22.75;9.68;;;;;;;;;;7387947;19;19991;-75
2022/12/01 14:41:36;;;;;;;21.95;10.93;;;;;;;;;;7387703;19;19995;-76
2022/12/01 14:44:17;;;;;;;25.52;11.18;;;;;;;;;;7392263;19;20070;-75
2022/12/01 14:47:12;;;;;;;21.40;11.05;;;;;;;;;;7392721;19;20078;-76
2022/12/01 14:49:51;;;;;;;21.75;9.88;;;;;;;;;;7391653;19;19998;-76